sensor_id;sensor_type;location;lat;lon;timestamp;temperature;humidity
9640;DHT22;51745;50.872;4.732;2022-12-07T00:01:06;4.20;99.90
9640;DHT22;51745;50.872;4.732;2022-12-07T00:03:54;4.20;99.90
9640;DHT22;51745;50.872;4.732;2022-12-07T00:06:44;4.10;99.90
9640;DHT22;51745;50.872;4.732;2022-12-07T00:09:32;4.00;99.90
9640;DHT22;51745;50.872;4.732;2022-12-07T00:12:20;4.00;99.90
9640;DHT22;51745;50.872;4.732;2022-12-07T00:15:10;4.00;99.90
9640;DHT22;51745;50.872;4.732;2022-12-07T00:17:58;4.10;99.90
9640;DHT22;51745;50.872;4.732;2022-12-07T00:20:46;4.20;99.90
9640;DHT22;51745;50.872;4.732;2022-12-07T00:23:34;4.20;99.90
9640;DHT22;51745;50.872;4.732;2022-12-07T00:26:22;4.20;99.90
9640;DHT22;51745;50.872;4.732;2022-12-07T00:29:12;4.20;99.90
9640;DHT22;51745;50.872;4.732;2022-12-07T00:32:03;4.20;99.90
9640;DHT22;51745;50.872;4.732;2022-12-07T00:34:51;4.20;99.90
9640;DHT22;51745;50.872;4.732;2022-12-07T00:37:40;4.20;99.90
9640;DHT22;51745;50.872;4.732;2022-12-07T00:40:27;4.20;99.90
9640;DHT22;51745;50.872;4.732;2022-12-07T00:43:15;4.10;99.90
9640;DHT22;51745;50.872;4.732;2022-12-07T00:46:04;4.00;99.90
9640;DHT22;51745;50.872;4.732;2022-12-07T00:48:54;4.00;99.90
9640;DHT22;51745;50.872;4.732;2022-12-07T00:51:42;4.00;99.90
9640;DHT22;51745;50.872;4.732;2022-12-07T00:54:29;4.00;99.90
9640;DHT22;51745;50.872;4.732;2022-12-07T00:57:17;4.00;99.90
9640;DHT22;51745;50.872;4.732;2022-12-07T01:00:06;4.00;99.90
9640;DHT22;51745;50.872;4.732;2022-12-07T01:02:54;4.10;99.90
9640;DHT22;51745;50.872;4.732;2022-12-07T01:05:50;4.00;99.90
9640;DHT22;51745;50.872;4.732;2022-12-07T01:08:38;4.10;99.90
9640;DHT22;51745;50.872;4.732;2022-12-07T01:11:27;4.00;99.90
9640;DHT22;51745;50.872;4.732;2022-12-07T01:14:15;4.00;99.90
9640;DHT22;51745;50.872;4.732;2022-12-07T01:17:02;4.10;99.90
9640;DHT22;51745;50.872;4.732;2022-12-07T01:19:50;4.00;99.90
9640;DHT22;51745;50.872;4.732;2022-12-07T01:22:39;4.00;99.90
9640;DHT22;51745;50.872;4.732;2022-12-07T01:25:28;3.90;99.90
9640;DHT22;51745;50.872;4.732;2022-12-07T01:28:16;3.90;99.90
9640;DHT22;51745;50.872;4.732;2022-12-07T01:31:05;4.30;99.90
9640;DHT22;51745;50.872;4.732;2022-12-07T01:33:55;3.50;99.90
9640;DHT22;51745;50.872;4.732;2022-12-07T01:36:44;3.70;99.90
9640;DHT22;51745;50.872;4.732;2022-12-07T01:39:33;3.60;99.90
9640;DHT22;51745;50.872;4.732;2022-12-07T01:42:22;3.70;99.90
9640;DHT22;51745;50.872;4.732;2022-12-07T01:48:20;5.60;99.90
9640;DHT22;51745;50.872;4.732;2022-12-07T01:51:11;3.60;99.90
9640;DHT22;51745;50.872;4.732;2022-12-07T01:54:01;3.00;99.90
9640;DHT22;51745;50.872;4.732;2022-12-07T01:56:50;3.70;99.90
9640;DHT22;51745;50.872;4.732;2022-12-07T01:59:38;3.70;99.90
9640;DHT22;51745;50.872;4.732;2022-12-07T02:02:27;3.80;99.90
9640;DHT22;51745;50.872;4.732;2022-12-07T02:05:17;3.80;99.90
9640;DHT22;51745;50.872;4.732;2022-12-07T02:08:06;3.80;99.90
9640;DHT22;51745;50.872;4.732;2022-12-07T02:10:55;4.00;99.90
9640;DHT22;51745;50.872;4.732;2022-12-07T02:13:45;3.80;99.90
9640;DHT22;51745;50.872;4.732;2022-12-07T02:16:36;3.90;99.90
9640;DHT22;51745;50.872;4.732;2022-12-07T02:19:31;4.40;99.90
9640;DHT22;51745;50.872;4.732;2022-12-07T02:22:31;3.80;99.90
9640;DHT22;51745;50.872;4.732;2022-12-07T02:25:25;3.80;99.90
9640;DHT22;51745;50.872;4.732;2022-12-07T02:28:19;3.70;99.90
9640;DHT22;51745;50.872;4.732;2022-12-07T02:31:18;3.70;99.90
9640;DHT22;51745;50.872;4.732;2022-12-07T02:34:09;3.60;99.90
9640;DHT22;51745;50.872;4.732;2022-12-07T02:37:02;4.20;99.90
9640;DHT22;51745;50.872;4.732;2022-12-07T02:39:53;3.60;99.90
9640;DHT22;51745;50.872;4.732;2022-12-07T02:42:43;3.50;99.90
9640;DHT22;51745;50.872;4.732;2022-12-07T02:45:32;3.50;99.90
9640;DHT22;51745;50.872;4.732;2022-12-07T02:48:24;3.50;99.90
9640;DHT22;51745;50.872;4.732;2022-12-07T02:51:12;3.30;99.90
9640;DHT22;51745;50.872;4.732;2022-12-07T02:54:01;3.60;99.90
9640;DHT22;51745;50.872;4.732;2022-12-07T02:56:49;3.60;99.90
9640;DHT22;51745;50.872;4.732;2022-12-07T02:59:40;4.90;99.90
9640;DHT22;51745;50.872;4.732;2022-12-07T03:02:36;3.60;99.90
9640;DHT22;51745;50.872;4.732;2022-12-07T03:05:34;3.60;99.90
9640;DHT22;51745;50.872;4.732;2022-12-07T03:08:29;3.60;99.90
9640;DHT22;51745;50.872;4.732;2022-12-07T03:11:21;3.60;99.90
9640;DHT22;51745;50.872;4.732;2022-12-07T03:14:13;3.60;99.90
9640;DHT22;51745;50.872;4.732;2022-12-07T03:17:05;3.50;99.90
9640;DHT22;51745;50.872;4.732;2022-12-07T03:19:56;3.50;99.90
9640;DHT22;51745;50.872;4.732;2022-12-07T03:22:48;3.50;99.90
9640;DHT22;51745;50.872;4.732;2022-12-07T03:25:38;3.40;99.90
9640;DHT22;51745;50.872;4.732;2022-12-07T03:28:29;3.50;99.90
9640;DHT22;51745;50.872;4.732;2022-12-07T03:31:21;3.50;99.90
9640;DHT22;51745;50.872;4.732;2022-12-07T03:34:10;3.50;99.90
9640;DHT22;51745;50.872;4.732;2022-12-07T03:37:00;3.50;99.90
9640;DHT22;51745;50.872;4.732;2022-12-07T03:39:53;3.50;99.90
9640;DHT22;51745;50.872;4.732;2022-12-07T03:42:44;3.50;99.90
9640;DHT22;51745;50.872;4.732;2022-12-07T03:45:35;3.60;99.90
9640;DHT22;51745;50.872;4.732;2022-12-07T03:48:26;3.60;99.90
9640;DHT22;51745;50.872;4.732;2022-12-07T03:51:17;3.60;99.90
9640;DHT22;51745;50.872;4.732;2022-12-07T03:54:09;3.60;99.90
9640;DHT22;51745;50.872;4.732;2022-12-07T03:56:59;3.60;99.90
9640;DHT22;51745;50.872;4.732;2022-12-07T03:59:49;3.60;99.90
9640;DHT22;51745;50.872;4.732;2022-12-07T04:02:41;3.60;99.90
9640;DHT22;51745;50.872;4.732;2022-12-07T04:05:31;3.60;99.90
9640;DHT22;51745;50.872;4.732;2022-12-07T04:08:20;3.60;99.90
9640;DHT22;51745;50.872;4.732;2022-12-07T04:11:08;3.40;99.90
9640;DHT22;51745;50.872;4.732;2022-12-07T04:13:57;3.30;99.90
9640;DHT22;51745;50.872;4.732;2022-12-07T04:17:03;3.30;99.90
9640;DHT22;51745;50.872;4.732;2022-12-07T04:19:52;3.30;99.90
9640;DHT22;51745;50.872;4.732;2022-12-07T04:22:41;3.20;99.90
9640;DHT22;51745;50.872;4.732;2022-12-07T04:25:30;3.10;99.90
9640;DHT22;51745;50.872;4.732;2022-12-07T04:28:19;4.60;99.90
9640;DHT22;51745;50.872;4.732;2022-12-07T04:31:10;2.80;99.90
9640;DHT22;51745;50.872;4.732;2022-12-07T04:34:00;2.80;99.90
9640;DHT22;51745;50.872;4.732;2022-12-07T04:36:49;2.50;99.90
9640;DHT22;51745;50.872;4.732;2022-12-07T04:39:38;4.10;99.90
9640;DHT22;51745;50.872;4.732;2022-12-07T04:42:25;2.40;99.90
9640;DHT22;51745;50.872;4.732;2022-12-07T04:45:15;2.40;99.90
9640;DHT22;51745;50.872;4.732;2022-12-07T04:48:06;2.60;99.90
9640;DHT22;51745;50.872;4.732;2022-12-07T04:50:54;2.60;99.90
9640;DHT22;51745;50.872;4.732;2022-12-07T04:53:44;2.40;99.90
9640;DHT22;51745;50.872;4.732;2022-12-07T04:56:33;2.70;99.90
9640;DHT22;51745;50.872;4.732;2022-12-07T04:59:22;2.80;99.90
9640;DHT22;51745;50.872;4.732;2022-12-07T05:02:13;5.00;99.90
9640;DHT22;51745;50.872;4.732;2022-12-07T05:05:03;2.90;99.90
9640;DHT22;51745;50.872;4.732;2022-12-07T05:07:51;2.80;99.90
9640;DHT22;51745;50.872;4.732;2022-12-07T05:10:41;2.60;99.90
9640;DHT22;51745;50.872;4.732;2022-12-07T05:13:31;2.70;99.90
9640;DHT22;51745;50.872;4.732;2022-12-07T05:16:21;2.60;99.90
9640;DHT22;51745;50.872;4.732;2022-12-07T05:19:09;2.70;99.90
9640;DHT22;51745;50.872;4.732;2022-12-07T05:22:04;2.00;99.90
9640;DHT22;51745;50.872;4.732;2022-12-07T05:24:51;2.50;99.90
9640;DHT22;51745;50.872;4.732;2022-12-07T05:27:40;2.60;99.90
9640;DHT22;51745;50.872;4.732;2022-12-07T05:30:28;3.20;99.90
9640;DHT22;51745;50.872;4.732;2022-12-07T05:33:17;2.80;99.90
9640;DHT22;51745;50.872;4.732;2022-12-07T05:36:05;2.90;99.90
9640;DHT22;51745;50.872;4.732;2022-12-07T05:38:55;2.90;99.90
9640;DHT22;51745;50.872;4.732;2022-12-07T05:41:43;3.00;99.90
9640;DHT22;51745;50.872;4.732;2022-12-07T05:44:49;3.10;99.90
9640;DHT22;51745;50.872;4.732;2022-12-07T05:47:37;3.10;99.90
9640;DHT22;51745;50.872;4.732;2022-12-07T05:50:25;3.20;99.90
9640;DHT22;51745;50.872;4.732;2022-12-07T05:53:19;3.20;99.90
9640;DHT22;51745;50.872;4.732;2022-12-07T05:56:10;3.10;99.90
9640;DHT22;51745;50.872;4.732;2022-12-07T05:58:57;3.10;99.90
9640;DHT22;51745;50.872;4.732;2022-12-07T06:02:04;3.30;99.90
9640;DHT22;51745;50.872;4.732;2022-12-07T06:04:52;2.90;99.90
9640;DHT22;51745;50.872;4.732;2022-12-07T06:07:41;3.10;99.90
9640;DHT22;51745;50.872;4.732;2022-12-07T06:10:31;3.30;99.90
9640;DHT22;51745;50.872;4.732;2022-12-07T06:13:24;3.00;99.90
9640;DHT22;51745;50.872;4.732;2022-12-07T06:16:15;3.70;99.90
9640;DHT22;51745;50.872;4.732;2022-12-07T06:19:03;4.60;99.90
9640;DHT22;51745;50.872;4.732;2022-12-07T06:21:52;3.00;99.90
9640;DHT22;51745;50.872;4.732;2022-12-07T06:24:42;3.20;99.90
9640;DHT22;51745;50.872;4.732;2022-12-07T06:27:31;3.10;99.90
9640;DHT22;51745;50.872;4.732;2022-12-07T06:30:21;3.00;99.90
9640;DHT22;51745;50.872;4.732;2022-12-07T06:33:11;2.90;99.90
9640;DHT22;51745;50.872;4.732;2022-12-07T06:36:02;2.90;99.90
9640;DHT22;51745;50.872;4.732;2022-12-07T06:38:54;3.40;99.90
9640;DHT22;51745;50.872;4.732;2022-12-07T06:41:42;2.90;99.90
9640;DHT22;51745;50.872;4.732;2022-12-07T06:44:30;3.20;99.90
9640;DHT22;51745;50.872;4.732;2022-12-07T06:47:21;3.10;99.90
9640;DHT22;51745;50.872;4.732;2022-12-07T06:50:26;3.20;99.90
9640;DHT22;51745;50.872;4.732;2022-12-07T06:53:14;3.50;99.90
9640;DHT22;51745;50.872;4.732;2022-12-07T06:56:03;2.90;99.90
9640;DHT22;51745;50.872;4.732;2022-12-07T06:58:55;4.20;99.90
9640;DHT22;51745;50.872;4.732;2022-12-07T07:01:44;2.90;99.90
9640;DHT22;51745;50.872;4.732;2022-12-07T07:04:33;3.00;99.90
9640;DHT22;51745;50.872;4.732;2022-12-07T07:07:21;2.80;99.90
9640;DHT22;51745;50.872;4.732;2022-12-07T07:10:10;3.00;99.90
9640;DHT22;51745;50.872;4.732;2022-12-07T07:13:01;2.70;99.90
9640;DHT22;51745;50.872;4.732;2022-12-07T07:15:50;1.80;99.90
9640;DHT22;51745;50.872;4.732;2022-12-07T07:18:38;3.10;99.90
9640;DHT22;51745;50.872;4.732;2022-12-07T07:21:27;3.00;99.90
9640;DHT22;51745;50.872;4.732;2022-12-07T07:24:16;2.90;99.90
9640;DHT22;51745;50.872;4.732;2022-12-07T07:27:03;3.00;99.90
9640;DHT22;51745;50.872;4.732;2022-12-07T07:29:52;3.10;99.90
9640;DHT22;51745;50.872;4.732;2022-12-07T07:32:39;3.20;99.90
9640;DHT22;51745;50.872;4.732;2022-12-07T07:35:27;3.30;99.90
9640;DHT22;51745;50.872;4.732;2022-12-07T07:38:20;3.30;99.90
9640;DHT22;51745;50.872;4.732;2022-12-07T07:41:07;3.30;99.90
9640;DHT22;51745;50.872;4.732;2022-12-07T07:43:55;3.30;99.90
9640;DHT22;51745;50.872;4.732;2022-12-07T07:46:42;3.30;99.90
9640;DHT22;51745;50.872;4.732;2022-12-07T07:49:31;3.20;99.90
9640;DHT22;51745;50.872;4.732;2022-12-07T07:52:18;3.10;99.90
9640;DHT22;51745;50.872;4.732;2022-12-07T07:55:08;3.10;99.90
9640;DHT22;51745;50.872;4.732;2022-12-07T07:57:55;3.00;99.90
9640;DHT22;51745;50.872;4.732;2022-12-07T08:00:44;2.40;99.90
9640;DHT22;51745;50.872;4.732;2022-12-07T08:03:35;3.30;99.90
9640;DHT22;51745;50.872;4.732;2022-12-07T08:06:24;2.80;99.90
9640;DHT22;51745;50.872;4.732;2022-12-07T08:09:17;4.20;99.90
9640;DHT22;51745;50.872;4.732;2022-12-07T08:12:07;2.60;99.90
9640;DHT22;51745;50.872;4.732;2022-12-07T08:14:56;2.70;99.90
9640;DHT22;51745;50.872;4.732;2022-12-07T08:17:44;3.00;99.90
9640;DHT22;51745;50.872;4.732;2022-12-07T08:20:33;2.50;99.90
9640;DHT22;51745;50.872;4.732;2022-12-07T08:23:21;2.60;99.90
9640;DHT22;51745;50.872;4.732;2022-12-07T08:26:19;2.60;99.90
9640;DHT22;51745;50.872;4.732;2022-12-07T08:29:08;1.40;99.90
9640;DHT22;51745;50.872;4.732;2022-12-07T08:31:57;2.80;99.90
9640;DHT22;51745;50.872;4.732;2022-12-07T08:34:54;2.80;99.90
9640;DHT22;51745;50.872;4.732;2022-12-07T08:37:41;3.00;99.90
9640;DHT22;51745;50.872;4.732;2022-12-07T08:40:29;2.80;99.90
9640;DHT22;51745;50.872;4.732;2022-12-07T08:43:17;4.40;99.90
9640;DHT22;51745;50.872;4.732;2022-12-07T08:46:09;2.90;99.90
9640;DHT22;51745;50.872;4.732;2022-12-07T08:48:58;2.90;99.90
9640;DHT22;51745;50.872;4.732;2022-12-07T08:51:46;3.10;99.90
9640;DHT22;51745;50.872;4.732;2022-12-07T08:54:35;3.20;99.90
9640;DHT22;51745;50.872;4.732;2022-12-07T08:57:24;3.30;99.90
9640;DHT22;51745;50.872;4.732;2022-12-07T09:00:12;3.40;99.90
9640;DHT22;51745;50.872;4.732;2022-12-07T09:03:02;3.50;99.90
9640;DHT22;51745;50.872;4.732;2022-12-07T09:05:50;4.70;99.90
9640;DHT22;51745;50.872;4.732;2022-12-07T09:08:39;3.90;99.90
9640;DHT22;51745;50.872;4.732;2022-12-07T09:11:29;4.00;99.90
9640;DHT22;51745;50.872;4.732;2022-12-07T09:14:17;4.10;99.90
9640;DHT22;51745;50.872;4.732;2022-12-07T09:17:06;4.10;99.90
9640;DHT22;51745;50.872;4.732;2022-12-07T09:19:56;4.00;99.90
9640;DHT22;51745;50.872;4.732;2022-12-07T09:22:44;4.10;99.90
9640;DHT22;51745;50.872;4.732;2022-12-07T09:25:31;4.30;99.90
9640;DHT22;51745;50.872;4.732;2022-12-07T09:28:20;4.20;99.90
9640;DHT22;51745;50.872;4.732;2022-12-07T09:31:07;4.20;99.90
9640;DHT22;51745;50.872;4.732;2022-12-07T09:34:11;4.20;99.90
9640;DHT22;51745;50.872;4.732;2022-12-07T09:37:01;4.20;99.90
9640;DHT22;51745;50.872;4.732;2022-12-07T09:39:51;4.20;99.90
9640;DHT22;51745;50.872;4.732;2022-12-07T09:42:39;4.30;99.90
9640;DHT22;51745;50.872;4.732;2022-12-07T09:45:31;4.30;99.90
9640;DHT22;51745;50.872;4.732;2022-12-07T09:48:21;4.50;99.90
9640;DHT22;51745;50.872;4.732;2022-12-07T09:51:14;4.90;99.90
9640;DHT22;51745;50.872;4.732;2022-12-07T09:54:11;4.80;99.90
9640;DHT22;51745;50.872;4.732;2022-12-07T09:57:00;5.00;99.90
9640;DHT22;51745;50.872;4.732;2022-12-07T09:59:49;5.10;99.90
9640;DHT22;51745;50.872;4.732;2022-12-07T10:02:38;5.10;99.90
9640;DHT22;51745;50.872;4.732;2022-12-07T10:05:30;5.10;99.90
9640;DHT22;51745;50.872;4.732;2022-12-07T10:08:19;5.10;99.90
9640;DHT22;51745;50.872;4.732;2022-12-07T10:11:10;5.10;99.90
9640;DHT22;51745;50.872;4.732;2022-12-07T10:14:09;4.00;99.90
9640;DHT22;51745;50.872;4.732;2022-12-07T10:16:57;5.20;99.90
9640;DHT22;51745;50.872;4.732;2022-12-07T10:19:45;5.20;99.90
9640;DHT22;51745;50.872;4.732;2022-12-07T10:25:57;5.00;99.90
9640;DHT22;51745;50.872;4.732;2022-12-07T10:28:47;5.50;99.90
9640;DHT22;51745;50.872;4.732;2022-12-07T10:31:37;5.50;99.90
9640;DHT22;51745;50.872;4.732;2022-12-07T10:34:26;5.50;99.90
9640;DHT22;51745;50.872;4.732;2022-12-07T10:37:16;5.50;99.90
9640;DHT22;51745;50.872;4.732;2022-12-07T10:40:18;5.60;99.90
9640;DHT22;51745;50.872;4.732;2022-12-07T10:43:16;5.70;99.90
9640;DHT22;51745;50.872;4.732;2022-12-07T10:46:28;5.70;99.90
9640;DHT22;51745;50.872;4.732;2022-12-07T10:49:29;5.90;99.90
9640;DHT22;51745;50.872;4.732;2022-12-07T10:52:24;6.00;99.90
9640;DHT22;51745;50.872;4.732;2022-12-07T10:55:19;6.20;99.90
9640;DHT22;51745;50.872;4.732;2022-12-07T10:58:19;6.30;99.90
9640;DHT22;51745;50.872;4.732;2022-12-07T11:01:12;6.00;99.90
9640;DHT22;51745;50.872;4.732;2022-12-07T11:04:15;6.40;99.90
9640;DHT22;51745;50.872;4.732;2022-12-07T11:07:10;6.30;99.90
9640;DHT22;51745;50.872;4.732;2022-12-07T11:10:02;6.30;99.90
9640;DHT22;51745;50.872;4.732;2022-12-07T11:13:13;6.30;99.90
9640;DHT22;51745;50.872;4.732;2022-12-07T11:16:23;6.30;99.90
9640;DHT22;51745;50.872;4.732;2022-12-07T11:19:18;6.20;99.90
9640;DHT22;51745;50.872;4.732;2022-12-07T11:22:14;6.20;99.90
9640;DHT22;51745;50.872;4.732;2022-12-07T11:25:13;6.30;99.90
9640;DHT22;51745;50.872;4.732;2022-12-07T11:28:15;6.20;99.90
9640;DHT22;51745;50.872;4.732;2022-12-07T11:31:08;6.10;99.90
9640;DHT22;51745;50.872;4.732;2022-12-07T11:34:00;6.00;99.90
9640;DHT22;51745;50.872;4.732;2022-12-07T11:36:52;6.00;99.90
9640;DHT22;51745;50.872;4.732;2022-12-07T11:39:44;6.20;99.90
9640;DHT22;51745;50.872;4.732;2022-12-07T11:42:35;6.40;99.90
9640;DHT22;51745;50.872;4.732;2022-12-07T11:45:25;6.60;99.90
9640;DHT22;51745;50.872;4.732;2022-12-07T11:48:14;6.80;99.90
9640;DHT22;51745;50.872;4.732;2022-12-07T11:51:04;6.80;99.90
9640;DHT22;51745;50.872;4.732;2022-12-07T11:53:56;6.70;99.90
9640;DHT22;51745;50.872;4.732;2022-12-07T11:56:48;6.60;99.90
9640;DHT22;51745;50.872;4.732;2022-12-07T11:59:38;6.50;99.90
9640;DHT22;51745;50.872;4.732;2022-12-07T12:02:28;6.40;99.90
9640;DHT22;51745;50.872;4.732;2022-12-07T12:05:21;6.40;99.90
9640;DHT22;51745;50.872;4.732;2022-12-07T12:08:12;6.50;99.90
9640;DHT22;51745;50.872;4.732;2022-12-07T12:11:26;6.70;99.90
9640;DHT22;51745;50.872;4.732;2022-12-07T12:14:26;6.80;99.90
9640;DHT22;51745;50.872;4.732;2022-12-07T12:17:28;6.90;99.90
9640;DHT22;51745;50.872;4.732;2022-12-07T12:20:22;6.90;99.90
9640;DHT22;51745;50.872;4.732;2022-12-07T12:23:12;6.80;99.90
9640;DHT22;51745;50.872;4.732;2022-12-07T12:26:02;6.70;99.90
9640;DHT22;51745;50.872;4.732;2022-12-07T12:28:54;6.60;99.90
9640;DHT22;51745;50.872;4.732;2022-12-07T12:31:46;6.60;99.90
9640;DHT22;51745;50.872;4.732;2022-12-07T12:34:40;6.60;99.90
9640;DHT22;51745;50.872;4.732;2022-12-07T12:37:39;6.70;99.90
9640;DHT22;51745;50.872;4.732;2022-12-07T12:40:38;6.80;99.90
9640;DHT22;51745;50.872;4.732;2022-12-07T12:43:44;6.80;99.90
9640;DHT22;51745;50.872;4.732;2022-12-07T12:49:42;6.80;99.90
9640;DHT22;51745;50.872;4.732;2022-12-07T12:58:40;6.70;99.90
9640;DHT22;51745;50.872;4.732;2022-12-07T13:01:39;6.70;99.90
9640;DHT22;51745;50.872;4.732;2022-12-07T13:04:37;6.60;99.90
9640;DHT22;51745;50.872;4.732;2022-12-07T13:10:36;6.50;99.90
9640;DHT22;51745;50.872;4.732;2022-12-07T13:13:34;6.50;99.90
9640;DHT22;51745;50.872;4.732;2022-12-07T13:16:39;6.60;99.90
9640;DHT22;51745;50.872;4.732;2022-12-07T13:22:48;6.80;99.90
9640;DHT22;51745;50.872;4.732;2022-12-07T13:25:38;7.00;99.90
9640;DHT22;51745;50.872;4.732;2022-12-07T13:28:32;7.10;99.90
9640;DHT22;51745;50.872;4.732;2022-12-07T13:31:30;7.30;99.90
9640;DHT22;51745;50.872;4.732;2022-12-07T13:34:27;7.30;99.90
9640;DHT22;51745;50.872;4.732;2022-12-07T13:37:15;7.30;99.90
9640;DHT22;51745;50.872;4.732;2022-12-07T13:40:15;7.40;99.90
9640;DHT22;51745;50.872;4.732;2022-12-07T13:43:12;7.60;99.90
9640;DHT22;51745;50.872;4.732;2022-12-07T13:46:01;7.50;99.90
9640;DHT22;51745;50.872;4.732;2022-12-07T13:48:51;7.30;99.90
9640;DHT22;51745;50.872;4.732;2022-12-07T13:51:41;7.20;99.90
9640;DHT22;51745;50.872;4.732;2022-12-07T13:54:30;7.00;99.90
9640;DHT22;51745;50.872;4.732;2022-12-07T14:00:13;6.70;99.90
9640;DHT22;51745;50.872;4.732;2022-12-07T14:03:03;6.70;99.90
9640;DHT22;51745;50.872;4.732;2022-12-07T14:06:03;6.60;99.90
9640;DHT22;51745;50.872;4.732;2022-12-07T14:09:05;6.70;99.90
9640;DHT22;51745;50.872;4.732;2022-12-07T14:11:53;6.70;99.90
9640;DHT22;51745;50.872;4.732;2022-12-07T14:20:32;6.60;99.90
9640;DHT22;51745;50.872;4.732;2022-12-07T14:23:21;6.30;99.90
9640;DHT22;51745;50.872;4.732;2022-12-07T14:26:10;6.40;99.90
9640;DHT22;51745;50.872;4.732;2022-12-07T14:34:34;6.50;99.90
9640;DHT22;51745;50.872;4.732;2022-12-07T14:37:23;6.60;99.90
9640;DHT22;51745;50.872;4.732;2022-12-07T14:40:12;6.10;99.90
9640;DHT22;51745;50.872;4.732;2022-12-07T14:43:02;6.20;99.90
9640;DHT22;51745;50.872;4.732;2022-12-07T14:45:52;6.10;99.90
9640;DHT22;51745;50.872;4.732;2022-12-07T14:48:40;6.10;99.90
9640;DHT22;51745;50.872;4.732;2022-12-07T14:51:50;6.00;99.90
9640;DHT22;51745;50.872;4.732;2022-12-07T14:55:00;5.70;99.90
9640;DHT22;51745;50.872;4.732;2022-12-07T14:57:49;5.40;99.90
9640;DHT22;51745;50.872;4.732;2022-12-07T15:00:36;5.20;99.90
9640;DHT22;51745;50.872;4.732;2022-12-07T15:03:24;5.20;99.90
9640;DHT22;51745;50.872;4.732;2022-12-07T15:06:13;5.10;99.90
9640;DHT22;51745;50.872;4.732;2022-12-07T15:09:02;5.10;99.90
9640;DHT22;51745;50.872;4.732;2022-12-07T15:11:51;5.10;99.90
9640;DHT22;51745;50.872;4.732;2022-12-07T15:14:39;5.10;99.90
9640;DHT22;51745;50.872;4.732;2022-12-07T15:17:27;5.10;99.90
9640;DHT22;51745;50.872;4.732;2022-12-07T15:20:17;5.00;99.90
9640;DHT22;51745;50.872;4.732;2022-12-07T15:23:09;4.90;99.90
9640;DHT22;51745;50.872;4.732;2022-12-07T15:25:57;4.90;99.90
9640;DHT22;51745;50.872;4.732;2022-12-07T15:28:48;4.60;99.90
9640;DHT22;51745;50.872;4.732;2022-12-07T15:31:36;4.60;99.90
9640;DHT22;51745;50.872;4.732;2022-12-07T15:34:41;4.40;99.90
9640;DHT22;51745;50.872;4.732;2022-12-07T15:37:28;4.30;99.90
9640;DHT22;51745;50.872;4.732;2022-12-07T15:40:16;4.30;99.90
9640;DHT22;51745;50.872;4.732;2022-12-07T15:43:03;4.20;99.90
9640;DHT22;51745;50.872;4.732;2022-12-07T15:46:12;4.30;99.90
9640;DHT22;51745;50.872;4.732;2022-12-07T15:49:02;4.20;99.90
9640;DHT22;51745;50.872;4.732;2022-12-07T15:51:50;4.20;99.90
9640;DHT22;51745;50.872;4.732;2022-12-07T15:54:38;4.30;99.90
9640;DHT22;51745;50.872;4.732;2022-12-07T15:57:25;4.30;99.90
9640;DHT22;51745;50.872;4.732;2022-12-07T16:00:14;4.40;99.90
9640;DHT22;51745;50.872;4.732;2022-12-07T16:03:03;4.30;99.90
9640;DHT22;51745;50.872;4.732;2022-12-07T16:05:52;4.40;99.90
9640;DHT22;51745;50.872;4.732;2022-12-07T16:08:41;4.30;99.90
9640;DHT22;51745;50.872;4.732;2022-12-07T16:11:31;4.30;99.90
9640;DHT22;51745;50.872;4.732;2022-12-07T16:14:19;4.40;99.90
9640;DHT22;51745;50.872;4.732;2022-12-07T16:17:07;4.40;99.90
9640;DHT22;51745;50.872;4.732;2022-12-07T16:19:57;4.40;99.90
9640;DHT22;51745;50.872;4.732;2022-12-07T16:22:45;4.40;99.90
9640;DHT22;51745;50.872;4.732;2022-12-07T16:25:33;4.40;99.90
9640;DHT22;51745;50.872;4.732;2022-12-07T16:28:22;4.40;99.90
9640;DHT22;51745;50.872;4.732;2022-12-07T16:31:11;4.40;99.90
9640;DHT22;51745;50.872;4.732;2022-12-07T16:33:59;4.40;99.90
9640;DHT22;51745;50.872;4.732;2022-12-07T16:36:49;4.40;99.90
9640;DHT22;51745;50.872;4.732;2022-12-07T16:39:51;4.50;99.90
9640;DHT22;51745;50.872;4.732;2022-12-07T16:42:39;4.70;99.90
9640;DHT22;51745;50.872;4.732;2022-12-07T16:45:27;4.60;99.90
9640;DHT22;51745;50.872;4.732;2022-12-07T16:48:15;4.60;99.90
9640;DHT22;51745;50.872;4.732;2022-12-07T16:51:04;4.60;99.90
9640;DHT22;51745;50.872;4.732;2022-12-07T16:53:53;4.50;99.90
9640;DHT22;51745;50.872;4.732;2022-12-07T16:56:41;4.60;99.90
9640;DHT22;51745;50.872;4.732;2022-12-07T16:59:29;4.60;99.90
9640;DHT22;51745;50.872;4.732;2022-12-07T17:02:18;4.70;99.90
9640;DHT22;51745;50.872;4.732;2022-12-07T17:05:06;4.70;99.90
9640;DHT22;51745;50.872;4.732;2022-12-07T17:07:55;4.70;99.90
9640;DHT22;51745;50.872;4.732;2022-12-07T17:10:44;4.70;99.90
9640;DHT22;51745;50.872;4.732;2022-12-07T17:13:33;5.10;99.90
9640;DHT22;51745;50.872;4.732;2022-12-07T17:16:38;4.80;99.90
9640;DHT22;51745;50.872;4.732;2022-12-07T17:19:26;4.80;99.90
9640;DHT22;51745;50.872;4.732;2022-12-07T17:22:14;4.80;99.90
9640;DHT22;51745;50.872;4.732;2022-12-07T17:25:01;4.80;99.90
9640;DHT22;51745;50.872;4.732;2022-12-07T17:27:51;4.10;99.90
9640;DHT22;51745;50.872;4.732;2022-12-07T17:30:39;4.80;99.90
9640;DHT22;51745;50.872;4.732;2022-12-07T17:33:27;4.80;99.90
9640;DHT22;51745;50.872;4.732;2022-12-07T17:36:16;4.80;99.90
9640;DHT22;51745;50.872;4.732;2022-12-07T17:39:06;4.70;99.90
9640;DHT22;51745;50.872;4.732;2022-12-07T17:41:57;4.90;99.90
9640;DHT22;51745;50.872;4.732;2022-12-07T17:45:04;4.70;99.90
9640;DHT22;51745;50.872;4.732;2022-12-07T17:47:53;4.80;99.90
9640;DHT22;51745;50.872;4.732;2022-12-07T17:50:40;4.80;99.90
9640;DHT22;51745;50.872;4.732;2022-12-07T17:53:47;4.70;99.90
9640;DHT22;51745;50.872;4.732;2022-12-07T17:56:35;4.80;99.90
9640;DHT22;51745;50.872;4.732;2022-12-07T17:59:22;4.80;99.90
9640;DHT22;51745;50.872;4.732;2022-12-07T18:02:15;4.70;99.90
9640;DHT22;51745;50.872;4.732;2022-12-07T18:05:06;5.50;99.90
9640;DHT22;51745;50.872;4.732;2022-12-07T18:07:54;4.70;99.90
9640;DHT22;51745;50.872;4.732;2022-12-07T18:10:42;4.70;99.90
9640;DHT22;51745;50.872;4.732;2022-12-07T18:13:30;4.60;99.90
9640;DHT22;51745;50.872;4.732;2022-12-07T18:16:24;4.60;99.90
9640;DHT22;51745;50.872;4.732;2022-12-07T18:19:14;4.50;99.90
9640;DHT22;51745;50.872;4.732;2022-12-07T18:22:02;4.50;99.90
9640;DHT22;51745;50.872;4.732;2022-12-07T18:24:50;4.60;99.90
9640;DHT22;51745;50.872;4.732;2022-12-07T18:27:37;4.50;99.90
9640;DHT22;51745;50.872;4.732;2022-12-07T18:30:25;4.60;99.90
9640;DHT22;51745;50.872;4.732;2022-12-07T18:33:35;4.60;99.90
9640;DHT22;51745;50.872;4.732;2022-12-07T18:36:24;4.50;99.90
9640;DHT22;51745;50.872;4.732;2022-12-07T18:39:12;4.40;99.90
9640;DHT22;51745;50.872;4.732;2022-12-07T18:42:00;4.40;99.90
9640;DHT22;51745;50.872;4.732;2022-12-07T18:44:48;4.40;99.90
9640;DHT22;51745;50.872;4.732;2022-12-07T18:47:36;4.40;99.90
9640;DHT22;51745;50.872;4.732;2022-12-07T18:50:24;4.40;99.90
9640;DHT22;51745;50.872;4.732;2022-12-07T18:53:13;4.70;99.90
9640;DHT22;51745;50.872;4.732;2022-12-07T18:56:02;4.30;99.90
9640;DHT22;51745;50.872;4.732;2022-12-07T18:58:51;4.20;99.90
9640;DHT22;51745;50.872;4.732;2022-12-07T19:01:56;4.30;99.90
9640;DHT22;51745;50.872;4.732;2022-12-07T19:04:44;4.20;99.90
9640;DHT22;51745;50.872;4.732;2022-12-07T19:07:31;4.10;99.90
9640;DHT22;51745;50.872;4.732;2022-12-07T19:10:19;4.00;99.90
9640;DHT22;51745;50.872;4.732;2022-12-07T19:13:07;4.00;99.90